sensor_id;sensor_type;location;lat;lon;timestamp;pressure;altitude;pressure_sealevel;temperature;humidity
64230;BME280;50547;49.498;0.092;2023-02-15T00:01:19;1024.46;;;9.27;70.89
64230;BME280;50547;49.498;0.092;2023-02-15T00:03:48;1024.44;;;9.32;70.55
64230;BME280;50547;49.498;0.092;2023-02-15T00:06:18;1024.46;;;9.28;70.57
64230;BME280;50547;49.498;0.092;2023-02-15T00:08:47;1024.54;;;9.24;70.85
64230;BME280;50547;49.498;0.092;2023-02-15T00:11:17;1024.54;;;9.30;70.37
64230;BME280;50547;49.498;0.092;2023-02-15T00:13:47;1024.52;;;9.26;70.56
64230;BME280;50547;49.498;0.092;2023-02-15T00:16:16;1024.46;;;9.17;70.91
64230;BME280;50547;49.498;0.092;2023-02-15T00:18:45;1024.40;;;9.12;71.06
64230;BME280;50547;49.498;0.092;2023-02-15T00:21:14;1024.40;;;9.16;70.78
64230;BME280;50547;49.498;0.092;2023-02-15T00:23:43;1024.35;;;9.12;70.86
64230;BME280;50547;49.498;0.092;2023-02-15T00:26:12;1024.35;;;9.12;70.96
64230;BME280;50547;49.498;0.092;2023-02-15T00:28:41;1024.33;;;9.09;71.09
64230;BME280;50547;49.498;0.092;2023-02-15T00:31:12;1024.31;;;9.06;71.13
64230;BME280;50547;49.498;0.092;2023-02-15T00:33:41;1024.29;;;9.09;70.87
64230;BME280;50547;49.498;0.092;2023-02-15T00:36:12;1024.25;;;9.09;70.97
64230;BME280;50547;49.498;0.092;2023-02-15T00:38:41;1024.29;;;9.13;70.77
64230;BME280;50547;49.498;0.092;2023-02-15T00:41:10;1024.27;;;9.11;70.78
64230;BME280;50547;49.498;0.092;2023-02-15T00:43:39;1024.23;;;9.08;71.10
64230;BME280;50547;49.498;0.092;2023-02-15T00:46:08;1024.27;;;8.97;71.48
64230;BME280;50547;49.498;0.092;2023-02-15T00:48:37;1024.29;;;8.94;71.58
64230;BME280;50547;49.498;0.092;2023-02-15T00:51:06;1024.23;;;8.94;71.41
64230;BME280;50547;49.498;0.092;2023-02-15T00:53:35;1024.19;;;8.93;71.51
64230;BME280;50547;49.498;0.092;2023-02-15T00:56:04;1024.19;;;8.95;71.30
64230;BME280;50547;49.498;0.092;2023-02-15T00:58:33;1024.13;;;8.96;71.30
64230;BME280;50547;49.498;0.092;2023-02-15T01:01:03;1024.07;;;9.01;71.13
64230;BME280;50547;49.498;0.092;2023-02-15T01:03:34;1024.03;;;8.97;71.15
64230;BME280;50547;49.498;0.092;2023-02-15T01:06:03;1024.03;;;8.86;71.86
64230;BME280;50547;49.498;0.092;2023-02-15T01:08:33;1024.03;;;8.89;71.60
64230;BME280;50547;49.498;0.092;2023-02-15T01:11:04;1023.99;;;8.85;71.67
64230;BME280;50547;49.498;0.092;2023-02-15T01:13:34;1024.01;;;8.87;71.60
64230;BME280;50547;49.498;0.092;2023-02-15T01:16:03;1023.99;;;8.87;71.51
64230;BME280;50547;49.498;0.092;2023-02-15T01:18:33;1024.01;;;8.78;72.06
64230;BME280;50547;49.498;0.092;2023-02-15T01:21:09;1023.99;;;8.68;72.36
64230;BME280;50547;49.498;0.092;2023-02-15T01:23:38;1024.05;;;8.73;72.11
64230;BME280;50547;49.498;0.092;2023-02-15T01:26:08;1023.97;;;8.71;72.04
64230;BME280;50547;49.498;0.092;2023-02-15T01:28:37;1023.96;;;8.62;72.39
64230;BME280;50547;49.498;0.092;2023-02-15T01:31:07;1023.88;;;8.60;72.39
64230;BME280;50547;49.498;0.092;2023-02-15T01:33:37;1023.84;;;8.49;72.82
64230;BME280;50547;49.498;0.092;2023-02-15T01:36:06;1023.92;;;8.41;73.00
64230;BME280;50547;49.498;0.092;2023-02-15T01:38:35;1023.90;;;8.32;73.46
64230;BME280;50547;49.498;0.092;2023-02-15T01:41:05;1023.82;;;8.25;73.59
64230;BME280;50547;49.498;0.092;2023-02-15T01:43:42;1023.82;;;8.22;73.61
64230;BME280;50547;49.498;0.092;2023-02-15T01:46:13;1023.82;;;8.23;73.39
64230;BME280;50547;49.498;0.092;2023-02-15T01:48:45;1023.82;;;8.19;73.52
64230;BME280;50547;49.498;0.092;2023-02-15T01:51:18;1023.82;;;8.17;73.47
64230;BME280;50547;49.498;0.092;2023-02-15T01:53:52;1023.82;;;8.17;73.47
64230;BME280;50547;49.498;0.092;2023-02-15T01:56:26;1023.82;;;8.07;74.10
64230;BME280;50547;49.498;0.092;2023-02-15T01:58:59;1023.84;;;7.98;74.54
64230;BME280;50547;49.498;0.092;2023-02-15T02:01:30;1023.86;;;8.09;73.76
64230;BME280;50547;49.498;0.092;2023-02-15T02:04:06;1023.86;;;8.08;73.71
64230;BME280;50547;49.498;0.092;2023-02-15T02:06:38;1023.82;;;8.00;74.07
64230;BME280;50547;49.498;0.092;2023-02-15T02:09:08;1023.80;;;7.97;74.13
64230;BME280;50547;49.498;0.092;2023-02-15T02:11:39;1023.74;;;7.91;74.40
64230;BME280;50547;49.498;0.092;2023-02-15T02:14:09;1023.72;;;7.90;74.32
64230;BME280;50547;49.498;0.092;2023-02-15T02:16:44;1023.64;;;7.81;74.77
64230;BME280;50547;49.498;0.092;2023-02-15T02:19:46;1023.62;;;7.75;74.90
64230;BME280;50547;49.498;0.092;2023-02-15T02:22:39;1023.64;;;7.75;74.84
64230;BME280;50547;49.498;0.092;2023-02-15T02:25:26;1023.56;;;7.64;75.39
64230;BME280;50547;49.498;0.092;2023-02-15T02:28:09;1023.52;;;7.66;75.12
64230;BME280;50547;49.498;0.092;2023-02-15T02:30:58;1023.50;;;7.65;74.92
64230;BME280;50547;49.498;0.092;2023-02-15T02:33:40;1023.30;;;7.53;75.56
64230;BME280;50547;49.498;0.092;2023-02-15T02:36:15;1023.22;;;7.57;75.41
64230;BME280;50547;49.498;0.092;2023-02-15T02:38:58;1023.22;;;7.61;75.29
64230;BME280;50547;49.498;0.092;2023-02-15T02:41:35;1023.18;;;7.77;74.31
64230;BME280;50547;49.498;0.092;2023-02-15T02:44:12;1023.16;;;7.84;74.14
64230;BME280;50547;49.498;0.092;2023-02-15T02:46:48;1023.14;;;7.81;74.59
64230;BME280;50547;49.498;0.092;2023-02-15T02:49:29;1023.12;;;7.91;74.20
64230;BME280;50547;49.498;0.092;2023-02-15T02:52:00;1023.08;;;7.92;74.20
64230;BME280;50547;49.498;0.092;2023-02-15T02:54:29;1023.06;;;7.86;74.53
64230;BME280;50547;49.498;0.092;2023-02-15T02:57:03;1023.02;;;7.81;74.62
64230;BME280;50547;49.498;0.092;2023-02-15T02:59:34;1023.04;;;7.70;75.16
64230;BME280;50547;49.498;0.092;2023-02-15T03:02:10;1023.04;;;7.72;75.03
64230;BME280;50547;49.498;0.092;2023-02-15T03:04:45;1023.02;;;7.78;74.69
64230;BME280;50547;49.498;0.092;2023-02-15T03:07:18;1023.00;;;7.71;74.92
64230;BME280;50547;49.498;0.092;2023-02-15T03:09:51;1023.04;;;7.69;74.86
64230;BME280;50547;49.498;0.092;2023-02-15T03:12:24;1022.97;;;7.79;74.25
64230;BME280;50547;49.498;0.092;2023-02-15T03:15:01;1022.91;;;7.65;75.00
64230;BME280;50547;49.498;0.092;2023-02-15T03:17:33;1022.95;;;7.62;75.23
64230;BME280;50547;49.498;0.092;2023-02-15T03:20:05;1022.87;;;7.64;74.75
64230;BME280;50547;49.498;0.092;2023-02-15T03:22:39;1022.91;;;7.53;75.45
64230;BME280;50547;49.498;0.092;2023-02-15T03:25:14;1022.89;;;7.46;75.60
64230;BME280;50547;49.498;0.092;2023-02-15T03:27:47;1022.83;;;7.46;75.54
64230;BME280;50547;49.498;0.092;2023-02-15T03:30:21;1022.79;;;7.29;76.37
64230;BME280;50547;49.498;0.092;2023-02-15T03:32:52;1022.83;;;7.27;76.37
64230;BME280;50547;49.498;0.092;2023-02-15T03:35:24;1022.77;;;7.32;75.96
64230;BME280;50547;49.498;0.092;2023-02-15T03:37:57;1022.83;;;7.34;75.83
64230;BME280;50547;49.498;0.092;2023-02-15T03:40:29;1022.79;;;7.37;75.75
64230;BME280;50547;49.498;0.092;2023-02-15T03:43:01;1022.77;;;7.37;75.75
64230;BME280;50547;49.498;0.092;2023-02-15T03:45:36;1022.81;;;7.37;75.81
64230;BME280;50547;49.498;0.092;2023-02-15T03:48:06;1022.79;;;7.37;75.73
64230;BME280;50547;49.498;0.092;2023-02-15T03:50:37;1022.83;;;7.38;75.52
64230;BME280;50547;49.498;0.092;2023-02-15T03:53:10;1022.83;;;7.37;75.47
64230;BME280;50547;49.498;0.092;2023-02-15T03:55:41;1022.83;;;7.39;75.28
64230;BME280;50547;49.498;0.092;2023-02-15T03:58:10;1022.87;;;7.25;75.99
64230;BME280;50547;49.498;0.092;2023-02-15T04:00:45;1022.91;;;7.27;75.91
64230;BME280;50547;49.498;0.092;2023-02-15T04:03:23;1022.93;;;7.26;75.77
64230;BME280;50547;49.498;0.092;2023-02-15T04:05:54;1022.91;;;7.21;75.98
64230;BME280;50547;49.498;0.092;2023-02-15T04:08:23;1022.91;;;7.14;76.24
64230;BME280;50547;49.498;0.092;2023-02-15T04:10:52;1022.91;;;7.17;76.01
64230;BME280;50547;49.498;0.092;2023-02-15T04:13:23;1022.89;;;7.09;76.27
64230;BME280;50547;49.498;0.092;2023-02-15T04:15:54;1022.91;;;7.11;76.10
64230;BME280;50547;49.498;0.092;2023-02-15T04:18:23;1022.97;;;7.11;76.01
64230;BME280;50547;49.498;0.092;2023-02-15T04:20:52;1022.97;;;7.03;76.35
64230;BME280;50547;49.498;0.092;2023-02-15T04:23:21;1023.02;;;6.93;76.85
64230;BME280;50547;49.498;0.092;2023-02-15T04:25:50;1023.02;;;6.90;76.99
64230;BME280;50547;49.498;0.092;2023-02-15T04:28:18;1023.00;;;6.97;76.40
64230;BME280;50547;49.498;0.092;2023-02-15T04:30:47;1022.93;;;7.01;76.12
64230;BME280;50547;49.498;0.092;2023-02-15T04:33:17;1022.93;;;6.81;77.20
64230;BME280;50547;49.498;0.092;2023-02-15T04:35:46;1022.91;;;6.80;77.22
64230;BME280;50547;49.498;0.092;2023-02-15T04:38:15;1022.87;;;6.80;77.02
64230;BME280;50547;49.498;0.092;2023-02-15T04:40:43;1022.89;;;6.72;77.51
64230;BME280;50547;49.498;0.092;2023-02-15T04:43:13;1022.95;;;6.59;78.15
64230;BME280;50547;49.498;0.092;2023-02-15T04:45:47;1022.99;;;6.48;78.67
64230;BME280;50547;49.498;0.092;2023-02-15T04:48:17;1022.97;;;6.36;79.23
64230;BME280;50547;49.498;0.092;2023-02-15T04:50:46;1022.99;;;6.28;79.47
64230;BME280;50547;49.498;0.092;2023-02-15T04:53:15;1022.97;;;6.23;79.60
64230;BME280;50547;49.498;0.092;2023-02-15T04:55:44;1022.95;;;6.12;79.86
64230;BME280;50547;49.498;0.092;2023-02-15T04:58:13;1022.93;;;6.11;79.83
64230;BME280;50547;49.498;0.092;2023-02-15T05:00:42;1022.95;;;6.02;80.21
64230;BME280;50547;49.498;0.092;2023-02-15T05:03:11;1022.89;;;5.92;80.69
64230;BME280;50547;49.498;0.092;2023-02-15T05:05:40;1022.91;;;5.94;80.43
64230;BME280;50547;49.498;0.092;2023-02-15T05:08:09;1022.85;;;5.92;80.44
64230;BME280;50547;49.498;0.092;2023-02-15T05:10:44;1022.91;;;5.91;80.46
64230;BME280;50547;49.498;0.092;2023-02-15T05:13:13;1022.87;;;5.88;80.46
64230;BME280;50547;49.498;0.092;2023-02-15T05:15:47;1022.87;;;5.94;80.08
64230;BME280;50547;49.498;0.092;2023-02-15T05:18:17;1022.91;;;6.01;79.70
64230;BME280;50547;49.498;0.092;2023-02-15T05:20:46;1022.89;;;6.07;79.30
64230;BME280;50547;49.498;0.092;2023-02-15T05:23:16;1022.93;;;6.26;78.39
64230;BME280;50547;49.498;0.092;2023-02-15T05:25:47;1022.93;;;6.34;78.16
64230;BME280;50547;49.498;0.092;2023-02-15T05:28:16;1022.91;;;6.42;77.83
64230;BME280;50547;49.498;0.092;2023-02-15T05:30:45;1022.91;;;6.46;77.89
64230;BME280;50547;49.498;0.092;2023-02-15T05:33:15;1022.87;;;6.35;78.48
64230;BME280;50547;49.498;0.092;2023-02-15T05:35:44;1022.89;;;6.39;78.33
64230;BME280;50547;49.498;0.092;2023-02-15T05:38:13;1022.93;;;6.46;77.85
64230;BME280;50547;49.498;0.092;2023-02-15T05:40:41;1022.85;;;6.53;77.65
64230;BME280;50547;49.498;0.092;2023-02-15T05:43:11;1022.89;;;6.59;77.33
64230;BME280;50547;49.498;0.092;2023-02-15T05:45:44;1022.87;;;6.68;76.93
64230;BME280;50547;49.498;0.092;2023-02-15T05:48:13;1022.85;;;6.69;76.93
64230;BME280;50547;49.498;0.092;2023-02-15T05:50:43;1022.81;;;6.77;76.44
64230;BME280;50547;49.498;0.092;2023-02-15T05:53:12;1022.85;;;6.78;76.35
64230;BME280;50547;49.498;0.092;2023-02-15T05:55:41;1022.85;;;6.75;76.46
64230;BME280;50547;49.498;0.092;2023-02-15T05:58:10;1022.91;;;6.75;76.39
64230;BME280;50547;49.498;0.092;2023-02-15T06:00:39;1022.87;;;6.86;75.93
64230;BME280;50547;49.498;0.092;2023-02-15T06:03:08;1022.87;;;6.88;75.81
64230;BME280;50547;49.498;0.092;2023-02-15T06:05:37;1022.87;;;6.83;75.86
64230;BME280;50547;49.498;0.092;2023-02-15T06:08:06;1022.95;;;6.85;75.78
64230;BME280;50547;49.498;0.092;2023-02-15T06:10:35;1022.95;;;6.72;76.36
64230;BME280;50547;49.498;0.092;2023-02-15T06:13:04;1023.00;;;6.74;76.14
64230;BME280;50547;49.498;0.092;2023-02-15T06:15:33;1022.99;;;6.71;76.20
64230;BME280;50547;49.498;0.092;2023-02-15T06:18:02;1022.97;;;6.80;75.78
64230;BME280;50547;49.498;0.092;2023-02-15T06:20:31;1022.95;;;6.70;76.29
64230;BME280;50547;49.498;0.092;2023-02-15T06:23:00;1022.97;;;6.65;76.39
64230;BME280;50547;49.498;0.092;2023-02-15T06:25:29;1023.00;;;6.68;76.06
64230;BME280;50547;49.498;0.092;2023-02-15T06:27:58;1022.99;;;6.68;75.99
64230;BME280;50547;49.498;0.092;2023-02-15T06:30:27;1022.97;;;6.65;75.92
64230;BME280;50547;49.498;0.092;2023-02-15T06:32:56;1023.00;;;6.74;75.52
64230;BME280;50547;49.498;0.092;2023-02-15T06:35:25;1022.95;;;6.71;75.75
64230;BME280;50547;49.498;0.092;2023-02-15T06:37:54;1022.99;;;6.69;75.93
64230;BME280;50547;49.498;0.092;2023-02-15T06:40:23;1022.99;;;6.75;75.78
64230;BME280;50547;49.498;0.092;2023-02-15T06:42:52;1023.04;;;6.78;75.60
64230;BME280;50547;49.498;0.092;2023-02-15T06:45:21;1023.08;;;6.82;75.39
64230;BME280;50547;49.498;0.092;2023-02-15T06:47:50;1023.04;;;6.77;75.39
64230;BME280;50547;49.498;0.092;2023-02-15T06:50:20;1023.08;;;6.65;76.14
64230;BME280;50547;49.498;0.092;2023-02-15T06:52:49;1023.08;;;6.68;76.06
64230;BME280;50547;49.498;0.092;2023-02-15T06:55:18;1023.10;;;6.67;75.90
64230;BME280;50547;49.498;0.092;2023-02-15T06:57:47;1023.08;;;6.67;75.90
64230;BME280;50547;49.498;0.092;2023-02-15T07:00:17;1023.02;;;6.83;75.16
64230;BME280;50547;49.498;0.092;2023-02-15T07:02:46;1023.08;;;6.86;74.95
64230;BME280;50547;49.498;0.092;2023-02-15T07:05:15;1023.02;;;6.76;75.59
64230;BME280;50547;49.498;0.092;2023-02-15T07:07:44;1023.02;;;6.66;76.08
64230;BME280;50547;49.498;0.092;2023-02-15T07:10:13;1023.12;;;6.63;76.26
64230;BME280;50547;49.498;0.092;2023-02-15T07:12:42;1023.12;;;6.52;76.61
64230;BME280;50547;49.498;0.092;2023-02-15T07:15:14;1023.12;;;6.56;76.28
64230;BME280;50547;49.498;0.092;2023-02-15T07:17:44;1023.10;;;6.51;76.32
64230;BME280;50547;49.498;0.092;2023-02-15T07:20:15;1023.04;;;6.54;76.18
64230;BME280;50547;49.498;0.092;2023-02-15T07:22:46;1023.10;;;6.54;76.30
64230;BME280;50547;49.498;0.092;2023-02-15T07:25:15;1023.02;;;6.60;76.15
64230;BME280;50547;49.498;0.092;2023-02-15T07:27:44;1023.04;;;6.52;76.38
64230;BME280;50547;49.498;0.092;2023-02-15T07:30:15;1023.04;;;6.58;75.91
64230;BME280;50547;49.498;0.092;2023-02-15T07:32:41;1023.00;;;6.60;75.68
64230;BME280;50547;49.498;0.092;2023-02-15T07:35:11;1023.04;;;6.64;75.44
64230;BME280;50547;49.498;0.092;2023-02-15T07:37:40;1023.00;;;6.63;75.47
64230;BME280;50547;49.498;0.092;2023-02-15T07:40:09;1022.93;;;6.62;75.38
64230;BME280;50547;49.498;0.092;2023-02-15T07:42:38;1022.99;;;6.60;75.56
64230;BME280;50547;49.498;0.092;2023-02-15T07:45:08;1022.97;;;6.65;75.33
64230;BME280;50547;49.498;0.092;2023-02-15T07:47:37;1022.95;;;6.69;75.20
64230;BME280;50547;49.498;0.092;2023-02-15T07:50:06;1022.93;;;6.74;75.12
64230;BME280;50547;49.498;0.092;2023-02-15T07:52:36;1022.93;;;6.79;74.92
64230;BME280;50547;49.498;0.092;2023-02-15T07:55:05;1022.91;;;6.84;74.63
64230;BME280;50547;49.498;0.092;2023-02-15T07:57:35;1022.89;;;6.87;74.51
64230;BME280;50547;49.498;0.092;2023-02-15T08:00:01;1022.91;;;6.91;74.39
64230;BME280;50547;49.498;0.092;2023-02-15T08:02:30;1022.97;;;6.99;73.69
64230;BME280;50547;49.498;0.092;2023-02-15T08:04:59;1022.91;;;7.01;73.56
64230;BME280;50547;49.498;0.092;2023-02-15T08:07:25;1022.93;;;7.05;73.23
64230;BME280;50547;49.498;0.092;2023-02-15T08:09:54;1022.95;;;7.14;72.69
64230;BME280;50547;49.498;0.092;2023-02-15T08:12:25;1022.95;;;7.35;71.68
64230;BME280;50547;49.498;0.092;2023-02-15T08:14:54;1023.00;;;7.47;71.23
64230;BME280;50547;49.498;0.092;2023-02-15T08:17:24;1022.99;;;7.53;71.00
64230;BME280;50547;49.498;0.092;2023-02-15T08:19:53;1022.99;;;7.59;70.85
64230;BME280;50547;49.498;0.092;2023-02-15T08:22:22;1022.95;;;7.63;70.79
64230;BME280;50547;49.498;0.092;2023-02-15T08:24:51;1022.93;;;7.73;70.58
64230;BME280;50547;49.498;0.092;2023-02-15T08:27:17;1022.89;;;7.66;70.78
64230;BME280;50547;49.498;0.092;2023-02-15T08:29:46;1022.93;;;7.78;70.64
64230;BME280;50547;49.498;0.092;2023-02-15T08:32:15;1022.93;;;7.83;70.38
64230;BME280;50547;49.498;0.092;2023-02-15T08:34:41;1023.02;;;7.92;70.13
64230;BME280;50547;49.498;0.092;2023-02-15T08:37:10;1023.04;;;7.96;69.90
64230;BME280;50547;49.498;0.092;2023-02-15T08:39:39;1023.06;;;7.96;70.05
64230;BME280;50547;49.498;0.092;2023-02-15T08:42:05;1023.12;;;7.95;70.30
64230;BME280;50547;49.498;0.092;2023-02-15T08:44:34;1023.08;;;7.98;70.13
64230;BME280;50547;49.498;0.092;2023-02-15T08:47:03;1023.10;;;8.12;69.58
64230;BME280;50547;49.498;0.092;2023-02-15T08:49:29;1023.04;;;8.23;69.37
64230;BME280;50547;49.498;0.092;2023-02-15T08:51:58;1023.00;;;8.15;69.73
64230;BME280;50547;49.498;0.092;2023-02-15T08:54:28;1023.04;;;8.20;69.82
64230;BME280;50547;49.498;0.092;2023-02-15T08:56:54;1023.04;;;8.21;69.78
64230;BME280;50547;49.498;0.092;2023-02-15T08:59:23;1023.12;;;8.33;69.29
64230;BME280;50547;49.498;0.092;2023-02-15T09:01:53;1023.14;;;8.35;68.96
64230;BME280;50547;49.498;0.092;2023-02-15T09:04:22;1023.10;;;8.27;69.37
64230;BME280;50547;49.498;0.092;2023-02-15T09:06:51;1023.10;;;8.29;69.32
64230;BME280;50547;49.498;0.092;2023-02-15T09:09:21;1023.16;;;8.42;68.87
64230;BME280;50547;49.498;0.092;2023-02-15T09:11:51;1023.22;;;8.40;68.76
64230;BME280;50547;49.498;0.092;2023-02-15T09:14:20;1023.28;;;8.51;68.29
64230;BME280;50547;49.498;0.092;2023-02-15T09:16:52;1023.32;;;8.64;67.64
64230;BME280;50547;49.498;0.092;2023-02-15T09:19:22;1023.32;;;8.69;67.65
64230;BME280;50547;49.498;0.092;2023-02-15T09:21:51;1023.28;;;8.85;67.05
64230;BME280;50547;49.498;0.092;2023-02-15T09:24:18;1023.24;;;8.84;67.22
64230;BME280;50547;49.498;0.092;2023-02-15T09:26:48;1023.24;;;8.80;66.94
64230;BME280;50547;49.498;0.092;2023-02-15T09:29:18;1023.26;;;9.00;66.33
64230;BME280;50547;49.498;0.092;2023-02-15T09:31:49;1023.32;;;9.21;65.47
64230;BME280;50547;49.498;0.092;2023-02-15T09:34:20;1023.30;;;9.24;65.61
64230;BME280;50547;49.498;0.092;2023-02-15T09:36:50;1023.28;;;9.23;66.06
64230;BME280;50547;49.498;0.092;2023-02-15T09:39:21;1023.32;;;9.17;66.32
64230;BME280;50547;49.498;0.092;2023-02-15T09:42:34;1023.38;;;9.30;66.09
64230;BME280;50547;49.498;0.092;2023-02-15T09:45:20;1023.42;;;9.33;65.91
64230;BME280;50547;49.498;0.092;2023-02-15T09:48:07;1023.40;;;9.31;65.44
64230;BME280;50547;49.498;0.092;2023-02-15T09:50:53;1023.42;;;9.42;64.92
64230;BME280;50547;49.498;0.092;2023-02-15T09:53:38;1023.40;;;9.57;64.12
64230;BME280;50547;49.498;0.092;2023-02-15T09:56:16;1023.28;;;9.63;63.26
64230;BME280;50547;49.498;0.092;2023-02-15T09:58:53;1023.26;;;9.51;62.88
64230;BME280;50547;49.498;0.092;2023-02-15T10:01:31;1023.24;;;9.87;61.32
64230;BME280;50547;49.498;0.092;2023-02-15T10:04:18;1023.22;;;10.03;60.96
64230;BME280;50547;49.498;0.092;2023-02-15T10:07:00;1023.28;;;10.17;60.07
64230;BME280;50547;49.498;0.092;2023-02-15T10:09:42;1023.36;;;10.42;59.95
64230;BME280;50547;49.498;0.092;2023-02-15T10:12:27;1023.40;;;10.47;60.57
64230;BME280;50547;49.498;0.092;2023-02-15T10:15:24;1023.50;;;10.52;59.58
64230;BME280;50547;49.498;0.092;2023-02-15T10:18:06;1023.52;;;10.80;57.86
64230;BME280;50547;49.498;0.092;2023-02-15T10:20:46;1023.54;;;10.85;57.42
64230;BME280;50547;49.498;0.092;2023-02-15T10:23:31;1023.54;;;11.01;56.94
64230;BME280;50547;49.498;0.092;2023-02-15T10:26:09;1023.58;;;11.33;56.24
64230;BME280;50547;49.498;0.092;2023-02-15T10:28:45;1023.54;;;11.47;55.31
64230;BME280;50547;49.498;0.092;2023-02-15T10:31:22;1023.52;;;11.53;54.81
64230;BME280;50547;49.498;0.092;2023-02-15T10:34:04;1023.56;;;11.80;54.22
64230;BME280;50547;49.498;0.092;2023-02-15T10:37:06;1023.60;;;11.89;53.69
64230;BME280;50547;49.498;0.092;2023-02-15T10:39:45;1023.70;;;12.14;53.56
64230;BME280;50547;49.498;0.092;2023-02-15T10:42:25;1023.64;;;12.24;52.25
64230;BME280;50547;49.498;0.092;2023-02-15T10:45:10;1023.64;;;12.49;52.10
64230;BME280;50547;49.498;0.092;2023-02-15T10:47:54;1023.64;;;12.76;51.76
64230;BME280;50547;49.498;0.092;2023-02-15T10:50:42;1023.64;;;13.03;50.18
64230;BME280;50547;49.498;0.092;2023-02-15T10:53:27;1023.62;;;13.28;50.45
64230;BME280;50547;49.498;0.092;2023-02-15T10:56:11;1023.68;;;13.59;49.54
64230;BME280;50547;49.498;0.092;2023-02-15T10:58:53;1023.60;;;13.88;47.73
64230;BME280;50547;49.498;0.092;2023-02-15T11:01:29;1023.58;;;14.13;47.39
64230;BME280;50547;49.498;0.092;2023-02-15T11:04:22;1023.50;;;14.17;46.08
64230;BME280;50547;49.498;0.092;2023-02-15T11:07:02;1023.52;;;14.22;46.17
64230;BME280;50547;49.498;0.092;2023-02-15T11:09:38;1023.42;;;13.99;45.50
64230;BME280;50547;49.498;0.092;2023-02-15T11:12:12;1023.50;;;14.13;46.49
64230;BME280;50547;49.498;0.092;2023-02-15T11:14:46;1023.52;;;14.28;45.17
64230;BME280;50547;49.498;0.092;2023-02-15T11:17:21;1023.50;;;14.56;45.15
64230;BME280;50547;49.498;0.092;2023-02-15T11:19:59;1023.50;;;14.99;44.42
64230;BME280;50547;49.498;0.092;2023-02-15T11:22:32;1023.42;;;15.25;44.20
64230;BME280;50547;49.498;0.092;2023-02-15T11:25:16;1023.50;;;15.35;43.46
64230;BME280;50547;49.498;0.092;2023-02-15T11:27:47;1023.40;;;15.67;42.21
64230;BME280;50547;49.498;0.092;2023-02-15T11:30:20;1023.40;;;15.80;41.68
64230;BME280;50547;49.498;0.092;2023-02-15T11:32:53;1023.34;;;15.97;41.41
64230;BME280;50547;49.498;0.092;2023-02-15T11:35:28;1023.34;;;16.20;41.38
64230;BME280;50547;49.498;0.092;2023-02-15T11:38:04;1023.32;;;16.64;38.78
64230;BME280;50547;49.498;0.092;2023-02-15T11:40:36;1023.30;;;16.87;39.12
64230;BME280;50547;49.498;0.092;2023-02-15T11:43:14;1023.28;;;16.81;38.96
64230;BME280;50547;49.498;0.092;2023-02-15T11:45:45;1023.22;;;16.76;39.49
64230;BME280;50547;49.498;0.092;2023-02-15T11:48:15;1023.22;;;16.95;39.24
64230;BME280;50547;49.498;0.092;2023-02-15T11:50:44;1023.12;;;17.28;36.88
64230;BME280;50547;49.498;0.092;2023-02-15T11:53:16;1023.00;;;17.47;37.06
64230;BME280;50547;49.498;0.092;2023-02-15T11:55:48;1022.99;;;17.46;37.41
64230;BME280;50547;49.498;0.092;2023-02-15T11:58:25;1023.00;;;17.34;36.77
64230;BME280;50547;49.498;0.092;2023-02-15T12:01:01;1022.97;;;17.48;38.09
64230;BME280;50547;49.498;0.092;2023-02-15T12:03:42;1022.99;;;17.65;36.99
64230;BME280;50547;49.498;0.092;2023-02-15T12:06:18;1022.97;;;17.70;38.08
64230;BME280;50547;49.498;0.092;2023-02-15T12:08:54;1022.97;;;17.51;37.09
64230;BME280;50547;49.498;0.092;2023-02-15T12:11:31;1022.91;;;17.73;37.85
64230;BME280;50547;49.498;0.092;2023-02-15T12:14:04;1022.91;;;18.03;37.57
64230;BME280;50547;49.498;0.092;2023-02-15T12:16:40;1022.91;;;18.13;36.94
64230;BME280;50547;49.498;0.092;2023-02-15T12:19:23;1022.89;;;18.25;37.42
64230;BME280;50547;49.498;0.092;2023-02-15T12:21:54;1022.85;;;18.16;38.48
64230;BME280;50547;49.498;0.092;2023-02-15T12:24:28;1022.81;;;18.02;37.89
64230;BME280;50547;49.498;0.092;2023-02-15T12:29:29;1022.73;;;18.47;37.36
64230;BME280;50547;49.498;0.092;2023-02-15T12:31:59;1022.71;;;18.25;37.48
64230;BME280;50547;49.498;0.092;2023-02-15T12:34:30;1022.67;;;18.59;37.51
64230;BME280;50547;49.498;0.092;2023-02-15T12:37:09;1022.57;;;18.44;36.66
64230;BME280;50547;49.498;0.092;2023-02-15T12:39:52;1022.54;;;18.24;37.66
64230;BME280;50547;49.498;0.092;2023-02-15T12:42:22;1022.54;;;18.09;38.88
64230;BME280;50547;49.498;0.092;2023-02-15T12:44:55;1022.46;;;17.77;39.20
64230;BME280;50547;49.498;0.092;2023-02-15T12:47:25;1022.44;;;17.82;38.68
64230;BME280;50547;49.498;0.092;2023-02-15T12:50:12;1022.44;;;17.45;39.35
64230;BME280;50547;49.498;0.092;2023-02-15T12:52:43;1022.44;;;17.58;39.29
64230;BME280;50547;49.498;0.092;2023-02-15T12:55:20;1022.44;;;17.58;38.99
64230;BME280;50547;49.498;0.092;2023-02-15T12:58:05;1022.42;;;17.73;38.57
64230;BME280;50547;49.498;0.092;2023-02-15T13:00:34;1022.42;;;17.89;38.77
64230;BME280;50547;49.498;0.092;2023-02-15T13:03:03;1022.36;;;17.80;39.06
64230;BME280;50547;49.498;0.092;2023-02-15T13:05:36;1022.38;;;18.02;38.43
64230;BME280;50547;49.498;0.092;2023-02-15T13:08:10;1022.42;;;18.36;37.05
64230;BME280;50547;49.498;0.092;2023-02-15T13:10:52;1022.38;;;18.54;36.40
64230;BME280;50547;49.498;0.092;2023-02-15T13:13:24;1022.42;;;18.56;37.42
64230;BME280;50547;49.498;0.092;2023-02-15T13:15:58;1022.40;;;19.09;36.58
64230;BME280;50547;49.498;0.092;2023-02-15T13:18:31;1022.34;;;19.52;35.42
64230;BME280;50547;49.498;0.092;2023-02-15T13:21:09;1022.28;;;19.36;36.03
64230;BME280;50547;49.498;0.092;2023-02-15T13:23:42;1022.24;;;19.16;36.94
64230;BME280;50547;49.498;0.092;2023-02-15T13:26:15;1022.18;;;19.24;36.41
64230;BME280;50547;49.498;0.092;2023-02-15T13:28:48;1022.16;;;19.55;36.17
64230;BME280;50547;49.498;0.092;2023-02-15T13:31:22;1022.18;;;19.52;36.45
64230;BME280;50547;49.498;0.092;2023-02-15T13:33:55;1022.22;;;19.98;35.81
64230;BME280;50547;49.498;0.092;2023-02-15T13:36:29;1022.22;;;20.15;35.96
64230;BME280;50547;49.498;0.092;2023-02-15T13:39:07;1022.14;;;20.51;34.77
64230;BME280;50547;49.498;0.092;2023-02-15T13:41:48;1022.14;;;20.54;35.02
64230;BME280;50547;49.498;0.092;2023-02-15T13:44:28;1022.09;;;20.37;35.54
64230;BME280;50547;49.498;0.092;2023-02-15T13:47:12;1022.05;;;20.03;36.93
64230;BME280;50547;49.498;0.092;2023-02-15T13:49:57;1022.03;;;19.79;37.69
64230;BME280;50547;49.498;0.092;2023-02-15T13:52:34;1021.99;;;19.72;37.85